createdAt,value
2023-04-29T00:00:22.587Z,100351.28
2023-04-29T00:02:49.807Z,100352.13
2023-04-29T00:05:17.251Z,100355.81
2023-04-29T00:07:44.575Z,100351.28
2023-04-29T00:10:14.633Z,100347.75
2023-04-29T00:12:42.098Z,100349.44
2023-04-29T00:15:09.553Z,100350.44
2023-04-29T00:17:36.935Z,100351.28
2023-04-29T00:20:04.373Z,100338.84
2023-04-29T00:22:31.541Z,100330.94
2023-04-29T00:24:58.666Z,100347.91
2023-04-29T00:27:25.849Z,100352.41
2023-04-29T00:29:53.238Z,100348.75
2023-04-29T00:32:20.581Z,100354.97
2023-04-29T00:34:48.354Z,100353.28
2023-04-29T00:37:15.469Z,100354.13
2023-04-29T00:39:42.574Z,100339.84
2023-04-29T00:42:09.689Z,100348.88
2023-04-29T00:44:36.973Z,100341.66
2023-04-29T00:47:04.222Z,100334.63
2023-04-29T00:49:31.381Z,100338.13
2023-04-29T00:51:58.490Z,100341.81
2023-04-29T00:54:25.609Z,100333.78
2023-04-29T00:56:52.741Z,100329.25
2023-04-29T00:59:19.913Z,100333.63
2023-04-29T01:01:47.054Z,100335.47
2023-04-29T01:04:14.402Z,100344.50
2023-04-29T01:06:44.606Z,100337.31
2023-04-29T01:09:17.380Z,100328.41
2023-04-29T01:11:55.805Z,100336.47
2023-04-29T01:14:22.979Z,100343.66
2023-04-29T01:16:53.278Z,100347.31
2023-04-29T01:19:40.179Z,100348.19
2023-04-29T01:22:07.407Z,100343.78
2023-04-29T01:24:34.532Z,100350.00
2023-04-29T01:27:11.428Z,100336.72
2023-04-29T01:29:40.893Z,100343.78
2023-04-29T01:32:11.560Z,100332.22
2023-04-29T01:34:42.758Z,100329.53
2023-04-29T01:37:30.529Z,100329.69
2023-04-29T01:40:12.421Z,100323.44
2023-04-29T01:42:40.190Z,100330.53
2023-04-29T01:45:08.233Z,100330.53
2023-04-29T01:47:37.909Z,100336.72
2023-04-29T01:50:05.339Z,100328.81
2023-04-29T01:52:32.615Z,100337.72
2023-04-29T01:54:59.725Z,100328.81
2023-04-29T01:57:26.870Z,100335.19
2023-04-29T01:59:54.381Z,100333.34
2023-04-29T02:02:23.578Z,100324.31
2023-04-29T02:04:51.027Z,100327.00
2023-04-29T02:07:18.295Z,100323.59
2023-04-29T02:09:45.466Z,100318.22
2023-04-29T02:12:12.659Z,100316.38
2023-04-29T02:14:39.766Z,100319.06
2023-04-29T02:17:06.899Z,100320.91
2023-04-29T02:19:34.125Z,100323.59
2023-04-29T02:22:01.411Z,100318.22
2023-04-29T02:24:28.543Z,100318.22
2023-04-29T02:26:56.071Z,100321.91
2023-04-29T02:29:23.256Z,100317.38
2023-04-29T02:31:50.798Z,100319.06
2023-04-29T02:34:18.100Z,100323.59
2023-04-29T02:36:45.300Z,100324.44
2023-04-29T02:39:12.416Z,100319.22
2023-04-29T02:41:39.545Z,100316.53
2023-04-29T02:44:07.104Z,100315.72
2023-04-29T02:46:36.092Z,100317.50
2023-04-29T02:49:03.736Z,100315.53
2023-04-29T02:51:30.908Z,100317.38
2023-04-29T02:53:58.564Z,100315.72
2023-04-29T02:56:25.682Z,100315.72
2023-04-29T02:58:52.869Z,100311.31
2023-04-29T03:01:20.043Z,100308.63
2023-04-29T03:03:47.524Z,100310.34
2023-04-29T03:06:15.920Z,100309.47
2023-04-29T03:08:43.209Z,100319.34
2023-04-29T03:11:10.325Z,100312.16
2023-04-29T03:13:38.681Z,100314.00
2023-04-29T03:16:06.852Z,100306.94
2023-04-29T03:18:33.970Z,100300.72
2023-04-29T03:21:01.320Z,100306.09
2023-04-29T03:23:28.443Z,100307.94
2023-04-29T03:25:55.983Z,100303.41
2023-04-29T03:28:23.892Z,100303.41
2023-04-29T03:30:51.056Z,100301.56
2023-04-29T03:33:18.224Z,100300.72
2023-04-29T03:35:45.764Z,100298.03
2023-04-29T03:38:12.877Z,100296.34
2023-04-29T03:40:39.988Z,100291.84
2023-04-29T03:43:09.289Z,100300.72
2023-04-29T03:45:37.436Z,100292.69
2023-04-29T03:48:04.680Z,100301.69
2023-04-29T03:50:31.932Z,100299.00
2023-04-29T03:52:59.141Z,100302.56
2023-04-29T03:55:26.311Z,100304.38
2023-04-29T03:57:53.424Z,100301.69
2023-04-29T04:00:20.686Z,100304.38
2023-04-29T04:02:48.085Z,100309.75
2023-04-29T04:05:15.457Z,100307.06
2023-04-29T04:07:42.622Z,100310.75
2023-04-29T04:10:09.796Z,100305.38
2023-04-29T04:12:36.903Z,100308.06
2023-04-29T04:15:04.240Z,100309.75
2023-04-29T04:17:31.450Z,100316.09
2023-04-29T04:19:58.564Z,100323.31
2023-04-29T04:22:25.765Z,100319.78
2023-04-29T04:24:54.790Z,100314.44
2023-04-29T04:27:21.911Z,100316.25
2023-04-29T04:29:49.028Z,100314.44
2023-04-29T04:32:16.177Z,100327.84
2023-04-29T04:34:43.481Z,100329.53
2023-04-29T04:37:10.649Z,100323.44
2023-04-29T04:39:38.525Z,100325.28
2023-04-29T04:42:05.867Z,100320.75
2023-04-29T04:44:33.269Z,100326.13
2023-04-29T04:47:03.346Z,100327.00
2023-04-29T04:49:30.477Z,100325.28
2023-04-29T04:51:57.650Z,100328.81
2023-04-29T04:54:24.783Z,100327.13
2023-04-29T04:56:52.299Z,100333.34
2023-04-29T04:59:23.273Z,100331.50
2023-04-29T05:01:59.010Z,100336.84
2023-04-29T05:04:26.312Z,100332.38
2023-04-29T05:06:53.729Z,100335.19
2023-04-29T05:09:20.855Z,100337.84
2023-04-29T05:11:47.963Z,100337.84
2023-04-29T05:14:15.096Z,100345.06
2023-04-29T05:16:43.717Z,100340.25
2023-04-29T05:19:10.902Z,100342.09
2023-04-29T05:21:38.131Z,100337.56
2023-04-29T05:24:06.158Z,100341.09
2023-04-29T05:26:33.292Z,100340.25
2023-04-29T05:29:01.138Z,100345.63
2023-04-29T05:31:28.564Z,100336.56
2023-04-29T05:33:55.901Z,100342.94
2023-04-29T05:36:23.020Z,100345.63
2023-04-29T05:38:50.256Z,100344.78
2023-04-29T05:41:17.398Z,100352.00
2023-04-29T05:43:44.626Z,100350.88
2023-04-29T05:46:11.911Z,100349.31
2023-04-29T05:48:39.095Z,100352.84
2023-04-29T05:51:06.323Z,100352.00
2023-04-29T05:53:33.503Z,100355.50
2023-04-29T05:56:00.690Z,100359.19
2023-04-29T05:58:27.873Z,100359.03
2023-04-29T06:00:55.010Z,100356.34
2023-04-29T06:03:22.301Z,100362.72
2023-04-29T06:05:50.058Z,100368.09
2023-04-29T06:08:17.637Z,100362.72
2023-04-29T06:10:44.822Z,100365.41
2023-04-29T06:13:12.105Z,100374.41
2023-04-29T06:15:39.233Z,100379.66
2023-04-29T06:18:06.510Z,100378.81
2023-04-29T06:20:34.963Z,100375.28
2023-04-29T06:23:05.224Z,100380.66
2023-04-29T06:25:32.412Z,100386.88
2023-04-29T06:27:59.570Z,100380.66
2023-04-29T06:30:26.690Z,100393.09
2023-04-29T06:32:53.903Z,100397.59
2023-04-29T06:35:21.233Z,100397.59
2023-04-29T06:37:48.365Z,100411.03
2023-04-29T06:40:15.538Z,100409.19
2023-04-29T06:42:43.734Z,100410.19
2023-04-29T06:45:11.045Z,100418.22
2023-04-29T06:47:38.260Z,100413.69
2023-04-29T06:50:05.588Z,100416.50
2023-04-29T06:52:33.427Z,100421.88
2023-04-29T06:55:00.755Z,100427.25
2023-04-29T06:57:27.845Z,100437.00
2023-04-29T06:59:55.217Z,100439.69
2023-04-29T07:02:22.631Z,100445.06
2023-04-29T07:04:51.015Z,100442.22
2023-04-29T07:07:18.246Z,100443.91
2023-04-29T07:09:45.685Z,100449.28
2023-04-29T07:12:12.832Z,100454.63
2023-04-29T07:14:40.934Z,100458.19
2023-04-29T07:17:08.056Z,100455.63
2023-04-29T07:19:35.254Z,100460.88
2023-04-29T07:22:02.802Z,100468.06
2023-04-29T07:24:29.917Z,100473.44
2023-04-29T07:26:57.343Z,100474.31
2023-04-29T07:29:24.506Z,100480.50
2023-04-29T07:31:51.611Z,100480.50
2023-04-29T07:34:18.767Z,100486.72
2023-04-29T07:36:45.960Z,100495.63
2023-04-29T07:39:15.330Z,100491.38
2023-04-29T07:41:42.438Z,100499.00
2023-04-29T07:44:09.574Z,100497.53
2023-04-29T07:46:36.929Z,100511.22
2023-04-29T07:49:05.113Z,100520.16
2023-04-29T07:51:32.844Z,100515.91
2023-04-29T07:53:59.974Z,100514.19
2023-04-29T07:56:27.307Z,100523.53
2023-04-29T07:58:54.453Z,100529.47
2023-04-29T08:01:21.569Z,100526.78
2023-04-29T08:03:49.183Z,100534.72
2023-04-29T08:06:16.760Z,100541.78
2023-04-29T08:08:44.009Z,100547.88
2023-04-29T08:11:15.514Z,100553.09
2023-04-29T08:13:42.603Z,100556.59
2023-04-29T08:16:09.966Z,100561.97
2023-04-29T08:18:37.158Z,100570.75
2023-04-29T08:21:04.380Z,100562.59
2023-04-29T08:23:32.082Z,100573.31
2023-04-29T08:25:59.188Z,100572.44
2023-04-29T08:28:26.391Z,100579.78
2023-04-29T08:30:53.532Z,100587.69
2023-04-29T08:33:20.681Z,100594.78
2023-04-29T08:35:47.831Z,100591.22
2023-04-29T08:38:15.121Z,100601.00
2023-04-29T08:40:42.963Z,100603.69
2023-04-29T08:43:10.270Z,100610.88
2023-04-29T08:45:37.492Z,100611.72
2023-04-29T08:48:04.785Z,100619.63
2023-04-29T08:50:31.981Z,100620.63
2023-04-29T08:52:59.106Z,100631.38
2023-04-29T08:55:26.249Z,100634.88
2023-04-29T08:57:54.239Z,100640.41
2023-04-29T09:00:21.422Z,100643.22
2023-04-29T09:02:50.180Z,100644.19
2023-04-29T09:05:17.428Z,100644.19
2023-04-29T09:07:44.619Z,100648.72
2023-04-29T09:10:11.919Z,100652.25
2023-04-29T09:12:39.036Z,100655.91
2023-04-29T09:15:06.865Z,100662.00
2023-04-29T09:17:40.931Z,100659.47
2023-04-29T09:20:20.341Z,100670.31
2023-04-29T09:22:51.316Z,100671.03
2023-04-29T09:25:18.646Z,100679.09
2023-04-29T09:27:45.814Z,100683.59
2023-04-29T09:30:13.650Z,100693.19
2023-04-29T09:32:41.033Z,100694.09
2023-04-29T09:35:24.705Z,100695.78
2023-04-29T09:38:11.973Z,100702.97
2023-04-29T09:40:54.366Z,100702.25
2023-04-29T09:43:26.275Z,100713.81
2023-04-29T09:45:53.650Z,100713.13
2023-04-29T09:48:20.913Z,100716.78
2023-04-29T09:51:02.189Z,100720.19
2023-04-29T09:53:31.682Z,100728.09
2023-04-29T09:56:03.654Z,100721.75
2023-04-29T09:58:38.021Z,100731.50
2023-04-29T10:01:06.679Z,100732.59
2023-04-29T10:03:38.319Z,100734.34
2023-04-29T10:06:07.234Z,100743.22
2023-04-29T10:08:34.961Z,100738.81
2023-04-29T10:11:04.104Z,100747.88
2023-04-29T10:13:31.461Z,100755.91
2023-04-29T10:16:11.569Z,100754.06
2023-04-29T10:18:41.981Z,100753.13
2023-04-29T10:21:09.847Z,100762.88
2023-04-29T10:23:37.889Z,100766.66
2023-04-29T10:26:06.379Z,100769.91
2023-04-29T10:28:33.670Z,100773.19
2023-04-29T10:31:03.768Z,100773.34
2023-04-29T10:33:33.395Z,100778.81
2023-04-29T10:36:02.205Z,100782.22
2023-04-29T10:38:36.150Z,100789.56
2023-04-29T10:41:28.785Z,100791.97
2023-04-29T10:43:56.631Z,100786.63
2023-04-29T10:46:27.545Z,100792.25
2023-04-29T10:49:01.600Z,100795.66
2023-04-29T10:51:39.736Z,100798.19
2023-04-29T10:54:17.157Z,100799.34
2023-04-29T10:56:50.597Z,100795.78
2023-04-29T10:59:22.494Z,100804.69
2023-04-29T11:01:53.606Z,100793.81
2023-04-29T11:04:22.208Z,100803.44
2023-04-29T11:06:56.431Z,100814.28
2023-04-29T11:09:27.972Z,100812.50
2023-04-29T11:12:03.856Z,100814.28
2023-04-29T11:14:42.037Z,100807.25
2023-04-29T11:17:11.159Z,100809.19
2023-04-29T11:19:46.733Z,100809.91
2023-04-29T11:22:15.224Z,100816.88
2023-04-29T11:24:56.047Z,100822.09
2023-04-29T11:27:25.676Z,100822.22
2023-04-29T11:30:00.505Z,100822.22
2023-04-29T11:32:29.340Z,100824.91
2023-04-29T11:35:12.650Z,100831.88
2023-04-29T11:37:41.481Z,100827.59
2023-04-29T11:40:09.780Z,100823.34
2023-04-29T11:42:45.401Z,100830.28
2023-04-29T11:45:13.257Z,100837.59
2023-04-29T11:47:45.570Z,100839.34
2023-04-29T11:50:13.606Z,100838.00
2023-04-29T11:52:41.749Z,100841.53
2023-04-29T11:55:12.857Z,100851.28
2023-04-29T11:57:40.578Z,100856.78
2023-04-29T12:00:13.866Z,100861.44
2023-04-29T12:02:46.314Z,100865.09
2023-04-29T12:05:16.088Z,100869.63
2023-04-29T12:07:44.153Z,100874.25
2023-04-29T12:10:12.251Z,100874.25
2023-04-29T12:12:43.996Z,100871.56
2023-04-29T12:15:11.737Z,100888.66
2023-04-29T12:17:39.618Z,100881.47
2023-04-29T12:20:10.413Z,100881.47
2023-04-29T12:22:37.824Z,100891.34
2023-04-29T12:25:06.081Z,100885.00
2023-04-29T12:27:36.376Z,100885.97
2023-04-29T12:30:08.505Z,100879.75
2023-04-29T12:32:37.056Z,100876.19
2023-04-29T12:35:04.487Z,100884.25
2023-04-29T12:37:31.864Z,100888.78
2023-04-29T12:39:59.123Z,100882.56
2023-04-29T12:42:34.006Z,100900.34
2023-04-29T12:45:01.252Z,100892.31
2023-04-29T12:47:36.932Z,100895.13
2023-04-29T12:50:04.372Z,100900.34
2023-04-29T12:52:31.671Z,100901.34
2023-04-29T12:54:59.052Z,100900.41
2023-04-29T12:57:29.644Z,100899.69
2023-04-29T12:59:56.891Z,100895.81
2023-04-29T13:02:24.123Z,100896.28
2023-04-29T13:04:52.163Z,100899.19
2023-04-29T13:07:19.879Z,100893.59
2023-04-29T13:09:47.202Z,100898.94
2023-04-29T13:12:14.374Z,100898.47
2023-04-29T13:14:41.587Z,100898.47
2023-04-29T13:17:08.889Z,100902.97
2023-04-29T13:19:50.212Z,100897.66
2023-04-29T13:22:18.685Z,100902.41
2023-04-29T13:24:46.632Z,100897.00
2023-04-29T13:27:14.852Z,100905.91
2023-04-29T13:29:42.051Z,100915.53
2023-04-29T13:32:09.347Z,100909.72
2023-04-29T13:34:36.766Z,100918.50
2023-04-29T13:37:03.922Z,100919.72
2023-04-29T13:39:31.756Z,100911.16
2023-04-29T13:41:59.715Z,100910.19
2023-04-29T13:44:34.194Z,100922.63
2023-04-29T13:47:07.442Z,100908.63
2023-04-29T13:50:05.739Z,100907.78
2023-04-29T13:55:12.347Z,100916.63
2023-04-29T13:58:36.404Z,100916.28
2023-04-29T14:00:56.984Z,100916.88
2023-04-29T14:03:14.942Z,100924.69
2023-04-29T14:05:42.551Z,100922.16
2023-04-29T14:08:10.046Z,100920.41
2023-04-29T14:10:37.393Z,100923.94
2023-04-29T14:13:05.931Z,100923.84
2023-04-29T14:15:33.599Z,100926.53
2023-04-29T14:18:01.033Z,100930.06
2023-04-29T14:20:29.960Z,100934.56
2023-04-29T14:22:57.183Z,100931.16
2023-04-29T14:25:25.228Z,100936.50
2023-04-29T14:27:54.183Z,100956.03
2023-04-29T14:30:21.665Z,100945.06
2023-04-29T14:32:49.137Z,100948.09
2023-04-29T14:35:16.640Z,100947.25
2023-04-29T14:37:44.113Z,100950.28
2023-04-29T14:40:11.734Z,100949.69
2023-04-29T14:42:38.928Z,100951.75
2023-04-29T14:45:06.974Z,100955.38
2023-04-29T14:47:34.370Z,100958.69
2023-04-29T14:50:02.064Z,100960.16
2023-04-29T14:52:29.255Z,100956.13
2023-04-29T14:54:56.621Z,100960.03
2023-04-29T14:57:23.958Z,100968.31
2023-04-29T14:59:51.322Z,100965.50
2023-04-29T15:02:18.681Z,100968.19
2023-04-29T15:04:46.358Z,100969.16
2023-04-29T15:07:14.415Z,100968.19
2023-04-29T15:09:41.989Z,100962.97
2023-04-29T15:12:10.237Z,100963.06
2023-04-29T15:14:37.754Z,100967.19
2023-04-29T15:17:04.975Z,100963.56
2023-04-29T15:19:32.424Z,100964.50
2023-04-29T15:21:59.644Z,100972.56
2023-04-29T15:24:27.088Z,100966.72
2023-04-29T15:26:54.328Z,100965.97
2023-04-29T15:29:21.838Z,100971.72
2023-04-29T15:31:49.390Z,100967.69
2023-04-29T15:34:16.889Z,100972.44
2023-04-29T15:36:44.068Z,100965.25
2023-04-29T15:39:12.196Z,100965.97
2023-04-29T15:41:39.690Z,100970.00
2023-04-29T15:44:06.902Z,100975.00
2023-04-29T15:46:34.400Z,100980.84
2023-04-29T15:49:02.369Z,100981.47
2023-04-29T15:51:29.533Z,100973.06
2023-04-29T15:53:56.726Z,100986.22
2023-04-29T15:56:24.449Z,100989.44
2023-04-29T15:58:51.701Z,100994.56
2023-04-29T16:01:19.465Z,100996.75
2023-04-29T16:03:46.815Z,100998.72
2023-04-29T16:06:15.973Z,100999.56
2023-04-29T16:08:43.287Z,101002.09
2023-04-29T16:11:10.591Z,101002.97
2023-04-29T16:13:37.766Z,101010.78
2023-04-29T16:16:05.084Z,101001.84
2023-04-29T16:18:33.746Z,101006.13
2023-04-29T16:21:01.167Z,101009.56
2023-04-29T16:23:28.530Z,101005.78
2023-04-29T16:25:56.012Z,101009.31
2023-04-29T16:28:24.188Z,101015.53
2023-04-29T16:30:51.340Z,101012.84
2023-04-29T16:33:18.612Z,101013.84
2023-04-29T16:35:45.792Z,101016.38
2023-04-29T16:38:13.222Z,101005.66
2023-04-29T16:40:40.460Z,101019.81
2023-04-29T16:43:07.632Z,101019.81
2023-04-29T16:45:34.792Z,101023.56
2023-04-29T16:48:02.719Z,101021.50
2023-04-29T16:50:30.108Z,101026.97
2023-04-29T16:52:57.270Z,101028.31
2023-04-29T16:55:24.595Z,101031.97
2023-04-29T16:57:51.949Z,101031.91
2023-04-29T17:00:19.244Z,101044.22
2023-04-29T17:02:48.472Z,101037.78
2023-04-29T17:05:19.344Z,101039.47
2023-04-29T17:07:46.824Z,101039.47
2023-04-29T17:10:14.039Z,101050.75
2023-04-29T17:12:41.219Z,101053.19
2023-04-29T17:15:08.769Z,101047.59
2023-04-29T17:17:36.276Z,101060.63
2023-04-29T17:20:03.835Z,101047.97
2023-04-29T17:22:32.655Z,101054.78
2023-04-29T17:25:00.086Z,101063.44
2023-04-29T17:27:27.418Z,101061.63
2023-04-29T17:29:54.793Z,101067.59
2023-04-29T17:32:28.472Z,101077.47
2023-04-29T17:34:56.745Z,101075.66
2023-04-29T17:37:27.008Z,101079.19
2023-04-29T17:39:54.539Z,101075.50
2023-04-29T17:42:22.078Z,101075.28
2023-04-29T17:44:49.471Z,101077.97
2023-04-29T17:47:21.153Z,101086.84
2023-04-29T17:49:48.816Z,101096.63
2023-04-29T17:52:20.868Z,101095.66
2023-04-29T17:54:48.915Z,101088.59
2023-04-29T17:57:16.311Z,101092.13
2023-04-29T17:59:44.150Z,101102.00
2023-04-29T18:02:11.521Z,101106.25
2023-04-29T18:04:40.560Z,101096.50
2023-04-29T18:07:07.715Z,101105.41
2023-04-29T18:09:34.900Z,101102.84
2023-04-29T18:12:02.365Z,101114.53
2023-04-29T18:14:30.966Z,101110.06
2023-04-29T18:17:02.176Z,101111.84
2023-04-29T18:19:29.555Z,101119.91
2023-04-29T18:21:59.127Z,101125.25
2023-04-29T18:24:27.389Z,101123.34
2023-04-29T18:26:55.856Z,101129.69
2023-04-29T18:29:23.137Z,101127.94
2023-04-29T18:31:50.527Z,101128.84
2023-04-29T18:34:18.014Z,101126.88
2023-04-29T18:36:45.609Z,101131.50
2023-04-29T18:39:13.064Z,101135.16
2023-04-29T18:41:40.420Z,101134.31
2023-04-29T18:44:07.647Z,101139.66
2023-04-29T18:46:35.216Z,101141.59
2023-04-29T18:49:02.762Z,101150.41
2023-04-29T18:51:30.273Z,101150.41
2023-04-29T18:53:57.499Z,101154.78
2023-04-29T18:56:24.749Z,101159.28
2023-04-29T18:58:52.141Z,101161.03
2023-04-29T19:01:19.577Z,101161.97
2023-04-29T19:03:47.033Z,101166.50
2023-04-29T19:06:14.449Z,101175.41
2023-04-29T19:08:41.709Z,101178.94
2023-04-29T19:11:08.968Z,101184.28
2023-04-29T19:13:36.154Z,101185.28
2023-04-29T19:16:03.460Z,101192.34
2023-04-29T19:18:30.753Z,101187.84
2023-04-29T19:20:58.151Z,101191.38
2023-04-29T19:23:25.419Z,101196.00
2023-04-29T19:25:52.617Z,101195.03
2023-04-29T19:28:19.857Z,101201.28
2023-04-29T19:30:47.153Z,101204.06
2023-04-29T19:33:14.455Z,101202.97
2023-04-29T19:35:41.895Z,101209.31
2023-04-29T19:38:09.207Z,101212.84
2023-04-29T19:40:36.384Z,101216.25
2023-04-29T19:43:03.804Z,101216.25
2023-04-29T19:45:31.388Z,101216.38
2023-04-29T19:48:01.963Z,101213.81
2023-04-29T19:50:32.923Z,101213.81
2023-04-29T19:53:00.423Z,101221.00
2023-04-29T19:55:27.916Z,101221.00
2023-04-29T19:57:55.331Z,101229.06
2023-04-29T20:00:22.858Z,101227.22
2023-04-29T20:02:52.189Z,101229.06
2023-04-29T20:05:19.887Z,101229.19
2023-04-29T20:07:47.374Z,101229.19
2023-04-29T20:10:15.061Z,101230.88
2023-04-29T20:12:42.561Z,101240.78
2023-04-29T20:15:10.345Z,101234.56
2023-04-29T20:17:38.972Z,101237.22
2023-04-29T20:20:08.921Z,101239.91
2023-04-29T20:22:36.231Z,101237.22
2023-04-29T20:25:04.166Z,101243.44
2023-04-29T20:27:31.336Z,101246.97
2023-04-29T20:29:58.825Z,101246.97
2023-04-29T20:32:26.374Z,101247.84
2023-04-29T20:34:54.382Z,101250.88
2023-04-29T20:37:26.335Z,101253.44
2023-04-29T20:39:53.745Z,101251.50
2023-04-29T20:42:21.087Z,101254.66
2023-04-29T20:44:48.409Z,101260.91
2023-04-29T20:47:15.883Z,101266.06
2023-04-29T20:49:43.719Z,101269.44
2023-04-29T20:52:11.312Z,101270.19
2023-04-29T20:54:41.070Z,101270.06
2023-04-29T20:57:08.339Z,101273.72
2023-04-29T20:59:35.682Z,101273.63
2023-04-29T21:02:02.886Z,101275.19
2023-04-29T21:04:30.282Z,101271.41
2023-04-29T21:06:57.500Z,101278.94
2023-04-29T21:09:26.613Z,101274.78
2023-04-29T21:11:53.776Z,101285.75
2023-04-29T21:14:20.975Z,101284.91
2023-04-29T21:16:48.314Z,101285.97
2023-04-29T21:19:15.867Z,101289.53
2023-04-29T21:21:43.742Z,101294.13
2023-04-29T21:24:11.054Z,101298.66
2023-04-29T21:26:38.617Z,101302.41
2023-04-29T21:29:05.891Z,101310.59
2023-04-29T21:31:33.389Z,101315.09
2023-04-29T21:34:00.825Z,101303.53
2023-04-29T21:36:28.277Z,101310.69
2023-04-29T21:38:55.682Z,101310.81
2023-04-29T21:41:31.531Z,101314.47
2023-04-29T21:43:59.481Z,101311.78
2023-04-29T21:46:30.645Z,101314.69
2023-04-29T21:49:01.291Z,101320.91
2023-04-29T21:51:29.224Z,101327.13
2023-04-29T21:53:56.449Z,101321.00
2023-04-29T21:56:24.579Z,101331.03
2023-04-29T21:58:52.648Z,101329.06
2023-04-29T22:01:29.501Z,101338.00
2023-04-29T22:03:57.895Z,101334.44
2023-04-29T22:06:25.389Z,101338.94
2023-04-29T22:08:52.758Z,101342.38
2023-04-29T22:11:21.737Z,101342.47
2023-04-29T22:13:49.004Z,101346.25
2023-04-29T22:16:16.564Z,101348.81
2023-04-29T22:18:43.797Z,101350.75
2023-04-29T22:21:11.001Z,101356.09
2023-04-29T22:23:38.244Z,101365.13
2023-04-29T22:26:05.923Z,101365.97
2023-04-29T22:28:33.300Z,101369.66
2023-04-29T22:31:00.503Z,101372.31
2023-04-29T22:33:27.795Z,101379.38
2023-04-29T22:35:55.030Z,101382.19
2023-04-29T22:38:22.640Z,101384.03
2023-04-29T22:40:51.103Z,101384.88
2023-04-29T22:43:18.530Z,101388.50
2023-04-29T22:45:53.080Z,101392.16
2023-04-29T22:48:20.657Z,101398.50
2023-04-29T22:50:52.387Z,101402.19
2023-04-29T22:53:20.140Z,101403.03
2023-04-29T22:55:57.968Z,101407.41
2023-04-29T22:58:25.994Z,101405.72
2023-04-29T23:00:57.213Z,101405.72
2023-04-29T23:03:25.092Z,101405.81
2023-04-29T23:05:54.642Z,101405.81
2023-04-29T23:08:21.850Z,101413.84
2023-04-29T23:10:49.672Z,101407.63
2023-04-29T23:13:17.374Z,101414.81
2023-04-29T23:15:45.016Z,101402.41
2023-04-29T23:18:12.432Z,101413.13
2023-04-29T23:20:39.655Z,101410.44
2023-04-29T23:23:06.924Z,101419.34
2023-04-29T23:25:34.469Z,101416.66
2023-04-29T23:28:01.688Z,101416.72
2023-04-29T23:30:28.848Z,101422.09
2023-04-29T23:32:56.044Z,101423.91
2023-04-29T23:35:23.227Z,101423.91
2023-04-29T23:37:50.454Z,101425.84
2023-04-29T23:40:17.641Z,101431.09
2023-04-29T23:42:44.817Z,101427.66
2023-04-29T23:45:12.088Z,101431.09
2023-04-29T23:47:39.344Z,101431.19
2023-04-29T23:50:07.116Z,101424.97
2023-04-29T23:52:34.278Z,101434.00
2023-04-29T23:55:01.430Z,101441.91
2023-04-29T23:57:28.648Z,101438.50
2023-04-29T23:59:56.273Z,101429.63
